Time;durP1;ratioP1;P1;durP2;ratioP2;P2;SDS_P1;SDS_P2;PMS_P1;PMS_P2;Temp;Humidity;BMP_temperature;BMP_pressure;BME280_temperature;BME280_humidity;BME280_pressure;Samples;Min_cycle;Max_cycle;Signal;HPM_P1;HPM_P2
2023/06/03 00:01:58;;;;;;;3.63;1.80;;;15.60;78.10;;;;;;5028765;28;20201;-67
2023/06/03 00:04:24;;;;;;;4.32;1.80;;;15.50;78.30;;;;;;5014735;28;20289;-67
2023/06/03 00:06:49;;;;;;;2.72;1.70;;;15.50;78.50;;;;;;5014047;28;20272;-67
2023/06/03 00:09:17;;;;;;;3.00;1.60;;;15.50;78.60;;;;;;5010719;28;20274;-66
2023/06/03 00:11:43;;;;;;;3.75;1.77;;;15.50;79.20;;;;;;5003529;28;20202;-65
2023/06/03 00:14:11;;;;;;;2.80;1.80;;;15.50;78.80;;;;;;5005867;28;20175;-67
2023/06/03 00:16:37;;;;;;;4.07;1.70;;;15.50;79.10;;;;;;5003038;28;20194;-67
2023/06/03 00:19:02;;;;;;;2.50;1.73;;;15.50;79.20;;;;;;5013599;28;20201;-66
2023/06/03 00:21:29;;;;;;;2.15;1.77;;;15.40;79.50;;;;;;5016204;28;20290;-67
2023/06/03 00:23:55;;;;;;;2.40;1.63;;;15.40;79.50;;;;;;5013198;28;20206;-67
2023/06/03 00:26:26;;;;;;;2.55;1.70;;;15.30;79.50;;;;;;5014964;28;20229;-66
2023/06/03 00:28:51;;;;;;;3.58;1.80;;;15.30;80.20;;;;;;5014320;28;20187;-69
2023/06/03 00:31:20;;;;;;;2.35;1.60;;;15.30;79.90;;;;;;5013817;28;20244;-68
2023/06/03 00:33:46;;;;;;;3.17;1.83;;;15.30;80.70;;;;;;5013762;28;20179;-63
2023/06/03 00:36:14;;;;;;;2.30;1.50;;;15.30;80.40;;;;;;5008193;28;20212;-66
2023/06/03 00:38:41;;;;;;;3.30;1.83;;;15.20;80.80;;;;;;5015203;28;20190;-66
2023/06/03 00:41:07;;;;;;;3.95;1.95;;;15.20;80.60;;;;;;5014184;28;20171;-66
2023/06/03 00:43:35;;;;;;;2.95;1.90;;;15.20;80.80;;;;;;5014076;28;20321;-66
2023/06/03 00:46:01;;;;;;;3.60;1.70;;;15.20;81.40;;;;;;5015036;28;20182;-66
2023/06/03 00:48:27;;;;;;;2.47;1.60;;;15.20;81.00;;;;;;5016112;28;20179;-66
2023/06/03 00:50:53;;;;;;;3.55;1.90;;;15.10;81.20;;;;;;5010198;28;20186;-67
2023/06/03 00:53:18;;;;;;;4.13;2.10;;;15.10;81.40;;;;;;5001203;28;20170;-66
2023/06/03 00:55:46;;;;;;;2.67;1.70;;;15.10;81.60;;;;;;5013431;28;20194;-65
2023/06/03 00:58:12;;;;;;;2.95;1.80;;;15.10;81.90;;;;;;5013284;28;20194;-67
2023/06/03 01:00:40;;;;;;;3.60;1.85;;;15.00;82.00;;;;;;5013328;28;20193;-66
2023/06/03 01:03:13;;;;;;;2.90;2.00;;;15.00;82.60;;;;;;5008495;28;20211;-66
2023/06/03 01:05:47;;;;;;;2.33;1.73;;;14.90;82.30;;;;;;5018642;28;20168;-66
2023/06/03 01:08:35;;;;;;;2.95;1.95;;;14.90;82.30;;;;;;5014548;28;20171;-67
2023/06/03 01:11:21;;;;;;;2.47;1.70;;;14.90;84.20;;;;;;5014432;28;20500;-67
2023/06/03 01:14:15;;;;;;;2.60;1.85;;;14.80;82.50;;;;;;5014234;28;20175;-68
2023/06/03 01:16:48;;;;;;;2.88;1.70;;;14.90;84.80;;;;;;5022983;28;20187;-68
2023/06/03 01:19:36;;;;;;;3.75;1.80;;;14.80;83.40;;;;;;5013879;28;20186;-68
2023/06/03 01:22:03;;;;;;;2.47;1.80;;;14.80;85.30;;;;;;5021674;28;20290;-67
2023/06/03 01:24:32;;;;;;;2.50;1.77;;;14.80;83.60;;;;;;5012757;28;20230;-68
2023/06/03 01:27:00;;;;;;;2.95;1.73;;;14.80;84.00;;;;;;5013744;28;20186;-68
2023/06/03 01:29:27;;;;;;;5.90;1.75;;;14.80;83.70;;;;;;5014663;28;20187;-67
2023/06/03 01:31:57;;;;;;;2.58;1.77;;;14.80;83.80;;;;;;5019047;28;20281;-67
2023/06/03 01:34:28;;;;;;;3.20;1.60;;;14.80;84.60;;;;;;5037883;28;20174;-68
2023/06/03 01:36:58;;;;;;;3.58;1.63;;;14.80;84.70;;;;;;5012905;28;20200;-68
2023/06/03 01:39:24;;;;;;;2.33;1.55;;;14.80;84.40;;;;;;5018381;28;20201;-68
2023/06/03 01:41:54;;;;;;;3.92;1.75;;;14.80;84.40;;;;;;5017843;28;20175;-67
2023/06/03 01:44:22;;;;;;;3.00;1.60;;;14.80;84.90;;;;;;5012706;28;20171;-68
2023/06/03 01:46:48;;;;;;;2.75;1.90;;;14.80;84.60;;;;;;5001807;28;20176;-67
2023/06/03 01:49:17;;;;;;;5.22;1.77;;;14.80;84.70;;;;;;5017831;28;20193;-67
2023/06/03 01:51:43;;;;;;;2.80;1.80;;;14.80;85.20;;;;;;5015736;28;20179;-68
2023/06/03 01:54:11;;;;;;;3.33;1.67;;;14.80;85.00;;;;;;5007965;28;20177;-65
2023/06/03 01:56:39;;;;;;;3.65;1.65;;;14.70;85.00;;;;;;5012670;28;20195;-68
2023/06/03 01:59:09;;;;;;;2.65;1.80;;;14.70;85.20;;;;;;5018810;28;20281;-67
2023/06/03 02:01:43;;;;;;;4.63;2.10;;;14.70;85.30;;;;;;5022810;28;20187;-67
2023/06/03 02:04:08;;;;;;;3.63;1.70;;;14.70;85.60;;;;;;5017447;28;20243;-68
2023/06/03 02:06:36;;;;;;;3.08;1.85;;;14.70;85.80;;;;;;5013435;28;20279;-67
2023/06/03 02:09:02;;;;;;;2.58;1.73;;;14.60;86.00;;;;;;4998730;28;20190;-66
2023/06/03 02:11:28;;;;;;;4.43;1.80;;;14.60;86.10;;;;;;5010553;28;20190;-68
2023/06/03 02:13:54;;;;;;;3.90;1.73;;;14.60;86.40;;;;;;5027388;28;20250;-66
2023/06/03 02:16:20;;;;;;;2.03;1.50;;;14.60;86.40;;;;;;5014554;28;20199;-65
2023/06/03 02:18:48;;;;;;;2.67;1.83;;;14.60;86.50;;;;;;5017575;28;20280;-66
2023/06/03 02:21:18;;;;;;;3.25;2.00;;;14.60;86.80;;;;;;5006475;28;20209;-66
2023/06/03 02:23:44;;;;;;;2.35;1.67;;;14.50;87.20;;;;;;5017442;28;20182;-65
2023/06/03 02:26:13;;;;;;;1.92;1.70;;;14.50;86.90;;;;;;5012899;28;20187;-66
2023/06/03 02:28:41;;;;;;;2.15;1.60;;;14.50;87.10;;;;;;5013225;28;20174;-66
2023/06/03 02:31:07;;;;;;;3.08;1.60;;;14.50;87.20;;;;;;5016172;28;20179;-66
2023/06/03 02:33:37;;;;;;;3.85;1.70;;;14.50;87.20;;;;;;5014110;28;20181;-66
2023/06/03 02:36:03;;;;;;;2.60;1.70;;;14.40;87.70;;;;;;5016208;28;20194;-66
2023/06/03 02:38:28;;;;;;;2.58;1.60;;;14.40;87.30;;;;;;5016826;28;20269;-66
2023/06/03 02:40:56;;;;;;;3.42;1.65;;;14.40;87.40;;;;;;5015622;28;20179;-66
2023/06/03 02:43:22;;;;;;;3.17;1.60;;;14.40;87.80;;;;;;5016029;28;20250;-66
2023/06/03 02:45:47;;;;;;;2.75;1.73;;;14.40;87.70;;;;;;5014197;28;20182;-65
2023/06/03 02:48:13;;;;;;;3.47;1.58;;;14.40;87.90;;;;;;5027982;28;20187;-66
2023/06/03 02:50:40;;;;;;;1.92;1.45;;;14.30;87.80;;;;;;5013439;28;20193;-66
2023/06/03 02:53:09;;;;;;;3.58;1.52;;;14.30;87.90;;;;;;5016119;28;20213;-64
2023/06/03 02:55:36;;;;;;;2.40;1.63;;;14.30;88.00;;;;;;5013056;28;20202;-66
2023/06/03 02:58:02;;;;;;;3.88;1.92;;;14.20;88.00;;;;;;5016357;28;20194;-63
2023/06/03 03:00:32;;;;;;;3.45;1.83;;;14.30;88.70;;;;;;5013041;28;20275;-63
2023/06/03 03:02:58;;;;;;;3.72;1.73;;;14.20;89.40;;;;;;5030538;28;20175;-66
2023/06/03 03:05:26;;;;;;;2.33;1.60;;;14.20;89.00;;;;;;5015938;28;20178;-66
2023/06/03 03:07:54;;;;;;;4.65;1.65;;;14.10;89.10;;;;;;5015779;28;20206;-66
2023/06/03 03:10:20;;;;;;;2.90;1.90;;;14.00;89.50;;;;;;5013905;28;20378;-65
2023/06/03 03:12:46;;;;;;;2.05;1.55;;;14.00;89.40;;;;;;5018195;28;21699;-66
2023/06/03 03:15:13;;;;;;;4.30;1.98;;;14.00;89.70;;;;;;5010100;28;20210;-66
2023/06/03 03:17:41;;;;;;;3.33;1.67;;;14.00;89.80;;;;;;5021432;28;20214;-66
2023/06/03 03:20:12;;;;;;;2.28;1.65;;;13.90;90.00;;;;;;5003862;28;20183;-66
2023/06/03 03:22:46;;;;;;;1.83;1.60;;;13.90;90.10;;;;;;5016445;28;20205;-66
2023/06/03 03:25:12;;;;;;;3.15;1.80;;;13.90;90.60;;;;;;5011617;28;20167;-66
2023/06/03 03:27:37;;;;;;;3.60;1.80;;;13.80;90.20;;;;;;5015338;28;20190;-67
2023/06/03 03:30:04;;;;;;;3.25;1.63;;;13.80;90.40;;;;;;5015307;28;20210;-66
2023/06/03 03:32:35;;;;;;;4.38;1.80;;;13.70;90.30;;;;;;5014914;28;20842;-66
2023/06/03 03:35:24;;;;;;;3.22;1.80;;;13.80;90.80;;;;;;5014468;28;20187;-66
2023/06/03 03:38:04;;;;;;;2.28;1.73;;;13.70;91.60;;;;;;5007759;28;20195;-66
2023/06/03 03:40:32;;;;;;;2.72;1.73;;;13.70;91.00;;;;;;5019682;28;20170;-66
2023/06/03 03:42:59;;;;;;;3.58;1.90;;;13.70;90.90;;;;;;5014053;28;20199;-66
2023/06/03 03:45:35;;;;;;;2.95;1.98;;;13.70;90.90;;;;;;5014553;28;20174;-65
2023/06/03 03:48:02;;;;;;;2.67;1.75;;;13.70;91.60;;;;;;5013164;28;20179;-66
2023/06/03 03:50:48;;;;;;;4.20;1.92;;;13.70;91.10;;;;;;5010611;28;20269;-67
2023/06/03 03:53:21;;;;;;;3.42;1.85;;;13.70;92.00;;;;;;5003345;28;20190;-67
2023/06/03 03:55:51;;;;;;;1.60;1.50;;;13.70;91.50;;;;;;5014667;28;20193;-66
2023/06/03 03:58:43;;;;;;;2.67;1.95;;;13.70;91.40;;;;;;5014962;28;20241;-67
2023/06/03 04:01:15;;;;;;;2.88;1.70;;;13.70;91.70;;;;;;5013917;28;20214;-67
2023/06/03 04:03:45;;;;;;;2.90;1.58;;;13.70;91.30;;;;;;5014216;28;20167;-66
2023/06/03 04:06:20;;;;;;;2.10;1.65;;;13.70;91.50;;;;;;5019591;28;20286;-66
2023/06/03 04:08:51;;;;;;;4.05;1.70;;;13.70;91.50;;;;;;4997573;28;20239;-66
2023/06/03 04:11:37;;;;;;;2.65;1.58;;;13.70;91.60;;;;;;5017450;28;20199;-65
2023/06/03 04:14:05;;;;;;;2.83;1.65;;;13.70;91.30;;;;;;5010845;28;20178;-67
2023/06/03 04:16:44;;;;;;;2.20;1.60;;;13.70;91.50;;;;;;5014820;28;20201;-67
2023/06/03 04:19:19;;;;;;;3.08;1.60;;;13.80;92.10;;;;;;5014381;28;20198;-67
2023/06/03 04:21:45;;;;;;;2.58;1.52;;;13.80;92.00;;;;;;4999550;28;20174;-67
2023/06/03 04:24:11;;;;;;;3.00;1.40;;;13.80;91.70;;;;;;5015753;28;20430;-67
2023/06/03 04:26:38;;;;;;;2.72;1.83;;;13.80;92.10;;;;;;5003493;28;20183;-67
2023/06/03 04:29:04;;;;;;;2.60;2.35;;;13.80;92.10;;;;;;4999542;28;20444;-66
2023/06/03 04:31:30;;;;;;;5.68;2.70;;;13.80;91.90;;;;;;5014804;28;20198;-67
2023/06/03 04:33:58;;;;;;;3.85;2.17;;;13.80;92.00;;;;;;5015015;28;20189;-67
2023/06/03 04:36:23;;;;;;;2.80;2.20;;;13.80;92.30;;;;;;5018065;28;20229;-67
2023/06/03 04:38:51;;;;;;;2.88;2.22;;;13.90;92.20;;;;;;5013137;28;20198;-67
2023/06/03 04:41:19;;;;;;;6.97;5.07;;;13.90;92.20;;;;;;5014299;28;20206;-66
2023/06/03 04:43:45;;;;;;;8.05;5.35;;;13.90;92.30;;;;;;5019103;28;20266;-67
2023/06/03 04:46:14;;;;;;;5.45;3.55;;;14.00;92.40;;;;;;5012888;28;20202;-67
2023/06/03 04:48:41;;;;;;;4.35;3.50;;;14.00;92.40;;;;;;5030664;28;20182;-66
2023/06/03 04:51:07;;;;;;;3.22;2.45;;;14.00;92.50;;;;;;5005655;28;20179;-67
2023/06/03 04:53:34;;;;;;;3.80;2.45;;;14.10;92.60;;;;;;5014723;28;20198;-65
2023/06/03 04:56:03;;;;;;;2.63;1.80;;;14.20;92.70;;;;;;5029299;28;20313;-67
2023/06/03 04:58:28;;;;;;;3.40;2.00;;;14.20;92.80;;;;;;5016053;28;20198;-63
2023/06/03 05:00:54;;;;;;;5.03;3.78;;;14.20;92.70;;;;;;5018087;28;20190;-66
2023/06/03 05:03:19;;;;;;;7.07;5.65;;;14.20;92.70;;;;;;5018102;28;20461;-67
2023/06/03 05:05:47;;;;;;;3.53;2.45;;;14.30;92.80;;;;;;5019017;28;20195;-66
2023/06/03 05:08:19;;;;;;;3.35;2.60;;;14.40;92.80;;;;;;5015935;28;20278;-67
2023/06/03 05:10:47;;;;;;;3.13;2.17;;;14.40;92.70;;;;;;5016268;28;20210;-67
2023/06/03 05:13:15;;;;;;;2.00;1.60;;;14.40;92.60;;;;;;5015803;28;20202;-67
2023/06/03 05:15:43;;;;;;;3.72;1.83;;;14.50;92.30;;;;;;5014405;28;20467;-69
2023/06/03 05:18:11;;;;;;;6.07;3.53;;;14.60;92.10;;;;;;5007756;28;20203;-66
2023/06/03 05:20:39;;;;;;;4.20;2.88;;;14.60;92.10;;;;;;4998419;28;20210;-67
2023/06/03 05:23:05;;;;;;;2.40;1.70;;;14.70;92.00;;;;;;5014096;28;20175;-67
2023/06/03 05:25:30;;;;;;;2.35;1.75;;;14.70;91.80;;;;;;5012936;28;20185;-66
2023/06/03 05:27:56;;;;;;;2.05;1.42;;;14.80;91.60;;;;;;5017819;28;20214;-67
2023/06/03 05:30:22;;;;;;;3.88;1.40;;;14.80;91.40;;;;;;5017075;28;20182;-65
2023/06/03 05:32:47;;;;;;;5.35;2.00;;;14.80;91.30;;;;;;5008997;28;20183;-67
2023/06/03 05:35:13;;;;;;;3.50;1.50;;;14.90;91.50;;;;;;5017662;28;20206;-64
2023/06/03 05:37:41;;;;;;;3.75;1.30;;;14.90;91.00;;;;;;5013317;28;20211;-67
2023/06/03 05:40:10;;;;;;;2.20;1.27;;;15.00;90.80;;;;;;5007439;28;20175;-67
2023/06/03 05:42:35;;;;;;;3.53;1.15;;;15.00;90.70;;;;;;5015850;28;20171;-66
2023/06/03 05:45:03;;;;;;;2.00;1.23;;;15.00;90.60;;;;;;5019877;28;20210;-67
2023/06/03 05:47:29;;;;;;;2.10;0.98;;;15.10;90.50;;;;;;5002709;28;20182;-67
2023/06/03 05:49:57;;;;;;;2.75;1.50;;;15.10;90.40;;;;;;5013818;28;20189;-67
2023/06/03 05:52:22;;;;;;;2.30;1.50;;;15.10;90.30;;;;;;5020410;28;20182;-67
2023/06/03 05:54:48;;;;;;;3.55;1.40;;;15.10;90.30;;;;;;5014141;28;20199;-67
2023/06/03 05:57:14;;;;;;;1.80;1.13;;;15.20;90.30;;;;;;5022066;28;20199;-67
2023/06/03 05:59:43;;;;;;;2.22;1.17;;;15.20;89.90;;;;;;5013900;28;20175;-66
2023/06/03 06:02:09;;;;;;;2.20;1.27;;;15.30;89.40;;;;;;5018164;28;20233;-67
2023/06/03 06:04:34;;;;;;;3.05;1.27;;;15.30;89.50;;;;;;5012618;28;20434;-67
2023/06/03 06:07:00;;;;;;;1.80;1.13;;;15.30;88.80;;;;;;5016677;28;20190;-67
2023/06/03 06:09:28;;;;;;;1.30;1.10;;;15.40;89.60;;;;;;5014657;28;20198;-67
2023/06/03 06:11:54;;;;;;;1.60;1.13;;;15.50;88.50;;;;;;5015577;28;20171;-67
2023/06/03 06:14:26;;;;;;;2.90;1.30;;;15.50;88.60;;;;;;5006881;28;20201;-67
2023/06/03 06:16:52;;;;;;;1.83;1.17;;;15.60;88.20;;;;;;5014836;28;20316;-67
2023/06/03 06:19:18;;;;;;;1.45;0.90;;;15.60;88.10;;;;;;5010207;28;20235;-67
2023/06/03 06:21:47;;;;;;;2.17;0.90;;;15.70;87.60;;;;;;5009239;28;20529;-64
2023/06/03 06:24:13;;;;;;;2.25;1.02;;;15.70;87.20;;;;;;5013390;28;20195;-67
2023/06/03 06:26:41;;;;;;;1.95;1.17;;;15.80;87.30;;;;;;5010165;28;20209;-67
2023/06/03 06:29:07;;;;;;;1.70;1.17;;;15.90;86.00;;;;;;5016282;28;20265;-68
2023/06/03 06:31:35;;;;;;;2.90;1.60;;;15.90;86.10;;;;;;5016046;28;20210;-66
2023/06/03 06:34:01;;;;;;;1.90;1.10;;;15.90;85.70;;;;;;5017575;28;20213;-64
2023/06/03 06:36:34;;;;;;;3.15;1.10;;;16.00;85.70;;;;;;5004141;28;20249;-65
2023/06/03 06:39:04;;;;;;;2.03;0.90;;;16.10;85.10;;;;;;4996947;28;20199;-65
2023/06/03 06:41:38;;;;;;;1.35;1.13;;;16.10;84.60;;;;;;5010935;28;20185;-65
2023/06/03 06:44:04;;;;;;;2.05;0.90;;;16.20;84.10;;;;;;5032517;28;20199;-64
2023/06/03 06:46:35;;;;;;;1.05;0.88;;;16.20;84.30;;;;;;5015494;28;20182;-65
2023/06/03 06:49:02;;;;;;;1.42;1.10;;;16.30;83.90;;;;;;5007166;28;20183;-64
2023/06/03 06:51:32;;;;;;;5.28;0.90;;;16.30;83.80;;;;;;5001395;28;20190;-65
2023/06/03 06:54:01;;;;;;;2.55;1.00;;;16.30;83.50;;;;;;5015969;28;20182;-65
2023/06/03 06:56:27;;;;;;;3.25;1.10;;;16.40;83.00;;;;;;5009762;28;20207;-66
2023/06/03 06:58:53;;;;;;;1.73;0.93;;;16.50;83.30;;;;;;5029509;28;20202;-65
2023/06/03 07:01:19;;;;;;;1.33;0.93;;;16.50;83.10;;;;;;5015747;28;20289;-65
2023/06/03 07:03:47;;;;;;;1.63;0.90;;;16.60;83.10;;;;;;5012342;28;20261;-64
2023/06/03 07:06:15;;;;;;;1.80;1.20;;;16.60;82.90;;;;;;5013668;28;20257;-69
2023/06/03 07:08:43;;;;;;;3.92;1.20;;;16.70;82.50;;;;;;5016303;28;20202;-69
2023/06/03 07:11:08;;;;;;;4.80;3.75;;;16.70;82.20;;;;;;5014154;28;20218;-71
2023/06/03 07:13:34;;;;;;;2.58;1.65;;;16.80;81.70;;;;;;5020679;28;20170;-70
2023/06/03 07:16:00;;;;;;;1.67;1.23;;;16.90;82.10;;;;;;5004339;28;20176;-69
2023/06/03 07:18:26;;;;;;;1.10;1.00;;;16.90;81.90;;;;;;5002357;28;20241;-69
2023/06/03 07:20:52;;;;;;;1.45;1.08;;;17.00;82.20;;;;;;5015397;28;20175;-69
2023/06/03 07:23:28;;;;;;;2.45;1.00;;;17.00;82.10;;;;;;5010056;28;20186;-68
2023/06/03 07:25:55;;;;;;;2.88;0.88;;;17.10;81.10;;;;;;5021745;28;20198;-69
2023/06/03 07:28:34;;;;;;;1.23;0.90;;;17.10;81.50;;;;;;5012486;28;20214;-68
2023/06/03 07:31:05;;;;;;;2.65;1.00;;;17.20;80.60;;;;;;5012452;28;20194;-67
2023/06/03 07:33:37;;;;;;;2.30;1.35;;;17.30;81.00;;;;;;5011840;28;20465;-68
2023/06/03 07:36:06;;;;;;;1.98;1.15;;;17.30;81.00;;;;;;5002212;28;20191;-68
2023/06/03 07:38:37;;;;;;;2.10;1.30;;;17.40;81.40;;;;;;5027308;28;20537;-68
2023/06/03 07:41:04;;;;;;;2.97;1.35;;;17.50;80.90;;;;;;5013514;28;20179;-68
2023/06/03 07:43:30;;;;;;;2.47;1.10;;;17.60;81.50;;;;;;5030893;28;20236;-69
2023/06/03 07:45:56;;;;;;;1.90;1.17;;;17.70;81.30;;;;;;5014874;28;20202;-69
2023/06/03 07:48:26;;;;;;;1.83;1.08;;;17.70;80.40;;;;;;5011735;28;20191;-71
2023/06/03 07:50:51;;;;;;;1.98;1.15;;;17.80;80.50;;;;;;5014627;28;20190;-68
2023/06/03 07:53:24;;;;;;;2.65;1.10;;;17.80;80.50;;;;;;5005570;28;20199;-68
2023/06/03 07:55:52;;;;;;;2.53;0.90;;;17.90;79.60;;;;;;5014560;28;20178;-69
2023/06/03 07:58:18;;;;;;;2.85;1.15;;;18.00;80.00;;;;;;5015620;28;20302;-68
2023/06/03 08:00:49;;;;;;;1.67;0.90;;;18.00;79.40;;;;;;5016639;28;20202;-68
2023/06/03 08:03:22;;;;;;;2.15;1.00;;;18.10;79.40;;;;;;5002970;28;20193;-68
2023/06/03 08:05:51;;;;;;;1.52;1.08;;;18.10;79.20;;;;;;5015886;28;20282;-69
2023/06/03 08:08:26;;;;;;;2.13;1.15;;;18.20;79.90;;;;;;5028238;28;20187;-69
2023/06/03 08:10:51;;;;;;;1.90;1.00;;;18.30;79.30;;;;;;5005264;28;20186;-69
2023/06/03 08:13:18;;;;;;;2.47;1.30;;;18.30;79.30;;;;;;5011110;28;20263;-70
2023/06/03 08:15:44;;;;;;;2.05;1.20;;;18.50;78.90;;;;;;5010391;28;20233;-69
2023/06/03 08:18:33;;;;;;;1.67;1.10;;;18.50;79.20;;;;;;5018596;28;20191;-69
2023/06/03 08:21:02;;;;;;;1.75;1.20;;;18.60;78.50;;;;;;5008308;28;20190;-68
2023/06/03 08:23:28;;;;;;;2.28;1.00;;;18.60;78.60;;;;;;5019318;28;20178;-70
2023/06/03 08:26:00;;;;;;;1.55;1.10;;;18.70;79.10;;;;;;5035060;28;20177;-69
2023/06/03 08:28:26;;;;;;;1.85;1.00;;;18.80;79.50;;;;;;5021918;28;20210;-70
2023/06/03 08:30:53;;;;;;;1.70;1.02;;;18.90;78.80;;;;;;5028353;28;20298;-69
2023/06/03 08:33:21;;;;;;;1.15;1.05;;;19.00;79.10;;;;;;5026110;28;20209;-70
2023/06/03 08:35:49;;;;;;;3.72;0.93;;;19.00;78.50;;;;;;5020191;28;20186;-69
2023/06/03 08:38:18;;;;;;;3.38;1.35;;;19.10;78.10;;;;;;5009793;28;20195;-68
2023/06/03 08:40:54;;;;;;;1.65;1.08;;;19.20;78.50;;;;;;5008572;28;20194;-68
2023/06/03 08:43:22;;;;;;;1.70;1.10;;;19.30;78.30;;;;;;5014721;28;20170;-70
2023/06/03 08:46:25;;;;;;;3.00;0.98;;;19.40;78.50;;;;;;5012384;28;20179;-69
2023/06/03 08:49:04;;;;;;;5.45;1.30;;;19.50;77.60;;;;;;4981176;28;20187;-68
2023/06/03 08:51:41;;;;;;;1.50;1.17;;;19.50;76.80;;;;;;4998543;28;20244;-69
2023/06/03 08:54:17;;;;;;;2.20;1.20;;;19.60;77.60;;;;;;5006582;28;20194;-70
2023/06/03 08:56:49;;;;;;;2.30;1.13;;;19.70;77.10;;;;;;5014456;28;20252;-71
2023/06/03 08:59:28;;;;;;;1.85;0.93;;;19.80;77.80;;;;;;5031543;28;20584;-70
2023/06/03 09:01:56;;;;;;;1.77;1.13;;;19.90;76.70;;;;;;5023943;28;20190;-73
2023/06/03 09:04:22;;;;;;;3.58;1.30;;;20.00;77.80;;;;;;5014280;28;20183;-72
2023/06/03 09:06:49;;;;;;;1.30;1.00;;;20.00;77.60;;;;;;5008560;28;20180;-73
2023/06/03 09:09:15;;;;;;;1.67;1.13;;;20.10;77.60;;;;;;5004594;28;20179;-72
2023/06/03 09:11:46;;;;;;;4.57;1.40;;;20.20;77.20;;;;;;5004957;28;20211;-72
2023/06/03 09:14:12;;;;;;;1.80;1.20;;;20.30;76.30;;;;;;5016639;28;20203;-72
2023/06/03 09:16:38;;;;;;;2.05;1.20;;;20.40;77.00;;;;;;5008290;28;20234;-71
2023/06/03 09:19:04;;;;;;;2.15;1.20;;;20.40;76.90;;;;;;5014880;28;20209;-71
2023/06/03 09:21:30;;;;;;;2.30;1.10;;;20.50;77.00;;;;;;5013931;28;20238;-71
2023/06/03 09:23:56;;;;;;;1.80;1.20;;;20.60;77.20;;;;;;5013129;28;20427;-70
2023/06/03 09:26:25;;;;;;;3.33;1.42;;;20.70;77.00;;;;;;5019766;28;20189;-72
2023/06/03 09:28:51;;;;;;;3.03;1.30;;;20.80;75.70;;;;;;5011973;28;20160;-72
2023/06/03 09:31:18;;;;;;;1.70;1.10;;;20.90;76.40;;;;;;5009731;28;20174;-72
2023/06/03 09:33:47;;;;;;;1.30;1.10;;;21.00;76.60;;;;;;5014320;28;20272;-71
2023/06/03 09:36:21;;;;;;;1.60;1.38;;;21.10;76.50;;;;;;5013859;28;20182;-71
2023/06/03 09:38:54;;;;;;;1.92;1.25;;;21.20;75.20;;;;;;5008983;28;20174;-71
2023/06/03 09:41:25;;;;;;;1.65;1.00;;;21.30;76.30;;;;;;5014203;28;20163;-70
2023/06/03 09:44:10;;;;;;;3.47;1.55;;;21.40;75.60;;;;;;5012045;28;20239;-69
2023/06/03 09:46:36;;;;;;;2.10;1.30;;;21.50;74.50;;;;;;5000081;28;20195;-69
2023/06/03 09:49:15;;;;;;;3.53;1.30;;;21.60;74.70;;;;;;4998433;28;20245;-69
2023/06/03 09:51:43;;;;;;;1.65;1.13;;;21.60;72.30;;;;;;5007974;28;20237;-69
2023/06/03 09:54:12;;;;;;;2.58;1.40;;;21.80;74.40;;;;;;5033273;28;20268;-69
2023/06/03 09:56:44;;;;;;;2.50;1.30;;;21.80;73.80;;;;;;5017709;28;20167;-70
2023/06/03 09:59:22;;;;;;;2.17;1.30;;;21.90;73.40;;;;;;5013889;28;20179;-68
2023/06/03 10:01:49;;;;;;;1.98;1.30;;;22.00;73.10;;;;;;5017570;28;20214;-69
2023/06/03 10:04:38;;;;;;;1.25;1.15;;;22.10;74.00;;;;;;5017333;28;20175;-69
2023/06/03 10:07:10;;;;;;;2.05;1.30;;;22.20;71.60;;;;;;5017400;28;20185;-69
2023/06/03 10:09:40;;;;;;;2.88;1.30;;;22.30;72.90;;;;;;5017101;28;20202;-68
2023/06/03 10:12:07;;;;;;;2.78;1.38;;;22.40;72.50;;;;;;4998336;28;20194;-69
2023/06/03 10:14:36;;;;;;;2.33;1.52;;;22.50;73.20;;;;;;5020150;28;20190;-69
2023/06/03 10:17:10;;;;;;;3.15;1.70;;;22.60;72.00;;;;;;5005725;28;20207;-68
2023/06/03 10:19:39;;;;;;;2.20;1.40;;;22.70;70.20;;;;;;4998513;28;20171;-68
2023/06/03 10:22:08;;;;;;;2.22;1.30;;;22.80;71.50;;;;;;5032551;28;20193;-68
2023/06/03 10:24:39;;;;;;;2.40;1.50;;;22.90;71.10;;;;;;5023894;28;20237;-68
2023/06/03 10:27:05;;;;;;;3.15;1.50;;;23.00;70.50;;;;;;5018258;28;20189;-69
2023/06/03 10:29:32;;;;;;;3.20;1.45;;;23.10;70.50;;;;;;5013913;28;20190;-70
2023/06/03 10:32:01;;;;;;;2.72;1.65;;;23.20;69.70;;;;;;5002928;28;20199;-69
2023/06/03 10:34:38;;;;;;;2.35;1.50;;;23.30;70.20;;;;;;5019947;28;20191;-70
2023/06/03 10:37:05;;;;;;;3.13;1.63;;;23.50;68.70;;;;;;5013416;28;20201;-69
2023/06/03 10:39:32;;;;;;;4.00;1.50;;;23.70;69.30;;;;;;5016523;28;20237;-69
2023/06/03 10:42:06;;;;;;;3.40;1.77;;;23.90;69.60;;;;;;5033429;28;20232;-68
2023/06/03 10:44:32;;;;;;;1.55;1.25;;;24.20;66.70;;;;;;5022076;28;20198;-68
2023/06/03 10:47:22;;;;;;;2.10;1.45;;;24.40;66.70;;;;;;5016700;28;20274;-69
2023/06/03 10:50:02;;;;;;;2.78;1.42;;;24.50;63.80;;;;;;5033428;28;20185;-68
2023/06/03 10:52:37;;;;;;;2.40;1.63;;;24.70;66.20;;;;;;5032237;28;20269;-68
2023/06/03 10:55:30;;;;;;;1.55;1.20;;;24.90;64.60;;;;;;5015600;28;20217;-69
2023/06/03 10:58:24;;;;;;;2.47;1.52;;;25.00;63.00;;;;;;5017211;28;20256;-68
2023/06/03 11:01:06;;;;;;;4.05;1.20;;;25.20;63.80;;;;;;5007938;28;20206;-68
2023/06/03 11:04:02;;;;;;;3.13;1.48;;;25.40;63.60;;;;;;5012808;28;20195;-69
2023/06/03 11:06:28;;;;;;;2.72;1.50;;;25.50;60.40;;;;;;4993130;28;20358;-68
2023/06/03 11:09:04;;;;;;;3.28;1.80;;;25.70;64.70;;;;;;5017419;28;20195;-70
2023/06/03 11:11:55;;;;;;;2.67;1.60;;;25.80;61.30;;;;;;5014833;28;20213;-69
2023/06/03 11:14:24;;;;;;;2.05;1.40;;;25.80;59.20;;;;;;5032651;28;20186;-69
2023/06/03 11:16:56;;;;;;;2.58;1.58;;;25.90;62.00;;;;;;5015699;28;20198;-69
2023/06/03 11:19:36;;;;;;;1.70;1.40;;;26.00;61.90;;;;;;5015785;28;20174;-69
2023/06/03 11:22:07;;;;;;;3.58;1.40;;;26.10;59.70;;;;;;5015874;28;20206;-70
2023/06/03 11:24:42;;;;;;;2.00;1.65;;;26.20;60.80;;;;;;5015653;28;20198;-69
2023/06/03 11:27:13;;;;;;;2.10;1.40;;;26.30;59.50;;;;;;5013105;28;20186;-69
2023/06/03 11:29:56;;;;;;;2.10;1.52;;;26.40;60.70;;;;;;5012503;28;20278;-70
2023/06/03 11:32:27;;;;;;;1.85;1.50;;;26.50;59.20;;;;;;5013961;28;20206;-69
2023/06/03 11:35:05;;;;;;;2.22;1.60;;;26.60;60.90;;;;;;5009827;28;20205;-69
2023/06/03 11:37:40;;;;;;;3.25;1.52;;;26.70;58.30;;;;;;5028831;28;20199;-69
2023/06/03 11:40:06;;;;;;;1.40;1.30;;;26.90;59.00;;;;;;5014669;28;20185;-69
2023/06/03 11:42:33;;;;;;;2.22;1.33;;;27.00;60.10;;;;;;5015672;28;20183;-70
2023/06/03 11:45:20;;;;;;;2.60;1.50;;;27.10;59.70;;;;;;5015140;28;20269;-69
2023/06/03 11:47:57;;;;;;;2.15;1.52;;;27.20;56.40;;;;;;5013104;28;20166;-70
2023/06/03 11:50:28;;;;;;;2.65;1.70;;;27.40;56.50;;;;;;5012380;28;20213;-69
2023/06/03 11:52:56;;;;;;;1.80;1.30;;;27.50;57.90;;;;;;5004913;28;20260;-69
2023/06/03 11:55:23;;;;;;;2.33;1.60;;;27.60;58.20;;;;;;5015382;28;20185;-69
2023/06/03 11:57:51;;;;;;;3.00;1.70;;;27.60;57.50;;;;;;5015049;28;20290;-69
2023/06/03 12:00:20;;;;;;;2.30;1.88;;;27.70;57.30;;;;;;5015098;28;20230;-69
2023/06/03 12:02:46;;;;;;;1.95;1.52;;;27.80;56.70;;;;;;5016139;28;20197;-69
2023/06/03 12:05:13;;;;;;;2.10;1.65;;;27.80;56.60;;;;;;5014663;28;20184;-71
2023/06/03 12:07:39;;;;;;;5.05;1.95;;;27.90;56.30;;;;;;5022838;28;20199;-70
2023/06/03 12:10:05;;;;;;;4.00;2.10;;;28.00;56.00;;;;;;5011763;28;20187;-69
2023/06/03 12:12:33;;;;;;;1.95;1.75;;;28.00;55.80;;;;;;5012328;28;20193;-69
2023/06/03 12:15:08;;;;;;;2.35;1.67;;;28.10;56.10;;;;;;5003549;28;20199;-70
2023/06/03 12:17:33;;;;;;;2.05;1.70;;;28.20;54.80;;;;;;5009398;28;20214;-69
2023/06/03 12:20:00;;;;;;;3.08;1.52;;;28.30;55.20;;;;;;5011580;28;20269;-69
2023/06/03 12:22:27;;;;;;;3.50;2.65;;;28.40;55.20;;;;;;5014586;28;20260;-70
2023/06/03 12:24:53;;;;;;;2.53;2.33;;;28.40;55.20;;;;;;5014750;28;20193;-69
2023/06/03 12:27:26;;;;;;;2.13;1.80;;;28.50;55.00;;;;;;5030874;28;20182;-69
2023/06/03 12:29:59;;;;;;;2.17;1.52;;;28.60;54.20;;;;;;4994900;28;20202;-69
2023/06/03 12:32:28;;;;;;;2.08;1.55;;;28.70;53.30;;;;;;5008246;28;20181;-69
2023/06/03 12:35:09;;;;;;;2.03;1.30;;;28.70;54.00;;;;;;5011686;28;20211;-70
2023/06/03 12:37:37;;;;;;;1.85;1.50;;;28.80;52.70;;;;;;4997598;28;20272;-69
2023/06/03 12:40:03;;;;;;;2.95;1.60;;;28.80;52.70;;;;;;5009503;28;20183;-69
2023/06/03 12:42:47;;;;;;;2.13;1.60;;;28.80;52.40;;;;;;5006015;28;20210;-70
2023/06/03 12:45:24;;;;;;;2.33;1.48;;;28.80;51.40;;;;;;5015704;28;20201;-69
2023/06/03 12:47:53;;;;;;;2.30;1.60;;;28.80;51.60;;;;;;5014758;28;20219;-69
2023/06/03 12:50:23;;;;;;;5.22;1.88;;;28.80;51.70;;;;;;5014584;28;20201;-69
2023/06/03 12:52:49;;;;;;;3.63;1.98;;;28.90;52.30;;;;;;5014034;28;20208;-69
2023/06/03 12:55:16;;;;;;;5.63;2.53;;;28.90;51.20;;;;;;5014603;28;20174;-69
2023/06/03 12:57:46;;;;;;;3.40;2.28;;;28.90;51.70;;;;;;5014682;28;20209;-70
2023/06/03 13:00:20;;;;;;;2.53;1.98;;;28.90;51.00;;;;;;5010703;28;20254;-70
2023/06/03 13:02:53;;;;;;;2.67;1.90;;;29.00;50.50;;;;;;5011523;28;20186;-69